sensor_id;sensor_type;location;lat;lon;timestamp;pressure;altitude;pressure_sealevel;temperature;humidity
29239;BME280;16267;48.194;11.546;2023-04-29T00:00:11;95679.81;;;11.95;100.00
29239;BME280;16267;48.194;11.546;2023-04-29T00:02:37;95674.53;;;11.92;100.00
29239;BME280;16267;48.194;11.546;2023-04-29T00:05:03;95672.69;;;11.85;100.00
29239;BME280;16267;48.194;11.546;2023-04-29T00:07:30;95675.88;;;11.80;100.00
29239;BME280;16267;48.194;11.546;2023-04-29T00:09:59;95664.00;;;11.77;100.00
29239;BME280;16267;48.194;11.546;2023-04-29T00:12:25;95669.72;;;11.79;100.00
29239;BME280;16267;48.194;11.546;2023-04-29T00:14:52;95670.56;;;11.76;100.00
29239;BME280;16267;48.194;11.546;2023-04-29T00:17:18;95660.38;;;11.68;100.00
29239;BME280;16267;48.194;11.546;2023-04-29T00:19:44;95676.97;;;11.63;100.00
29239;BME280;16267;48.194;11.546;2023-04-29T00:22:10;95668.28;;;11.55;100.00
29239;BME280;16267;48.194;11.546;2023-04-29T00:24:35;95665.31;;;11.49;100.00
29239;BME280;16267;48.194;11.546;2023-04-29T00:27:01;95658.81;;;11.50;100.00
29239;BME280;16267;48.194;11.546;2023-04-29T00:29:27;95650.47;;;11.45;100.00
29239;BME280;16267;48.194;11.546;2023-04-29T00:31:53;95654.31;;;11.44;100.00
29239;BME280;16267;48.194;11.546;2023-04-29T00:34:19;95653.94;;;11.42;100.00
29239;BME280;16267;48.194;11.546;2023-04-29T00:36:44;95660.09;;;11.42;100.00
29239;BME280;16267;48.194;11.546;2023-04-29T00:39:10;95653.34;;;11.34;100.00
29239;BME280;16267;48.194;11.546;2023-04-29T00:41:38;95658.28;;;11.35;100.00
29239;BME280;16267;48.194;11.546;2023-04-29T00:44:04;95655.69;;;11.32;100.00
29239;BME280;16267;48.194;11.546;2023-04-29T00:46:29;95659.13;;;11.32;100.00
29239;BME280;16267;48.194;11.546;2023-04-29T00:48:55;95654.78;;;11.38;100.00
29239;BME280;16267;48.194;11.546;2023-04-29T00:51:21;95655.22;;;11.37;100.00
29239;BME280;16267;48.194;11.546;2023-04-29T00:53:47;95658.28;;;11.35;100.00
29239;BME280;16267;48.194;11.546;2023-04-29T00:56:13;95648.28;;;11.36;100.00
29239;BME280;16267;48.194;11.546;2023-04-29T00:58:41;95645.22;;;11.37;100.00
29239;BME280;16267;48.194;11.546;2023-04-29T01:01:18;95643.63;;;11.40;100.00
29239;BME280;16267;48.194;11.546;2023-04-29T01:03:44;95646.66;;;11.42;100.00
29239;BME280;16267;48.194;11.546;2023-04-29T01:14:38;95640.59;;;11.38;100.00
29239;BME280;16267;48.194;11.546;2023-04-29T01:17:10;95645.09;;;11.45;100.00
29239;BME280;16267;48.194;11.546;2023-04-29T01:19:51;95650.38;;;11.48;100.00
29239;BME280;16267;48.194;11.546;2023-04-29T01:22:17;95648.53;;;11.45;100.00
29239;BME280;16267;48.194;11.546;2023-04-29T01:24:44;95645.88;;;11.42;100.00
29239;BME280;16267;48.194;11.546;2023-04-29T01:39:01;95639.09;;;11.37;100.00
29239;BME280;16267;48.194;11.546;2023-04-29T01:41:43;95642.13;;;11.39;100.00
29239;BME280;16267;48.194;11.546;2023-04-29T01:44:15;95652.88;;;11.39;100.00
29239;BME280;16267;48.194;11.546;2023-04-29T01:46:50;95645.13;;;11.41;100.00
29239;BME280;16267;48.194;11.546;2023-04-29T01:49:26;95643.97;;;11.42;100.00
29239;BME280;16267;48.194;11.546;2023-04-29T01:51:53;95636.25;;;11.44;100.00
29239;BME280;16267;48.194;11.546;2023-04-29T01:54:19;95642.44;;;11.41;100.00
29239;BME280;16267;48.194;11.546;2023-04-29T01:56:47;95637.78;;;11.45;100.00
29239;BME280;16267;48.194;11.546;2023-04-29T01:59:13;95645.50;;;11.43;100.00
29239;BME280;16267;48.194;11.546;2023-04-29T02:01:38;95645.41;;;11.47;100.00
29239;BME280;16267;48.194;11.546;2023-04-29T02:04:04;95645.09;;;11.45;100.00
29239;BME280;16267;48.194;11.546;2023-04-29T02:06:30;95635.09;;;11.45;100.00
29239;BME280;16267;48.194;11.546;2023-04-29T02:08:58;95642.41;;;11.45;100.00
29239;BME280;16267;48.194;11.546;2023-04-29T02:11:24;95645.41;;;11.47;100.00
29239;BME280;16267;48.194;11.546;2023-04-29T02:13:50;95642.69;;;11.50;100.00
29239;BME280;16267;48.194;11.546;2023-04-29T02:16:16;95643.06;;;11.49;100.00
29239;BME280;16267;48.194;11.546;2023-04-29T02:18:41;95651.13;;;11.49;100.00
29239;BME280;16267;48.194;11.546;2023-04-29T02:21:07;95641.09;;;11.53;100.00
29239;BME280;16267;48.194;11.546;2023-04-29T02:23:34;95643.78;;;11.53;100.00
29239;BME280;16267;48.194;11.546;2023-04-29T02:26:00;95639.56;;;11.52;100.00
29239;BME280;16267;48.194;11.546;2023-04-29T02:28:26;95643.78;;;11.53;100.00
29239;BME280;16267;48.194;11.546;2023-04-29T02:30:52;95641.75;;;11.57;100.00
29239;BME280;16267;48.194;11.546;2023-04-29T02:33:19;95644.53;;;11.53;100.00
29239;BME280;16267;48.194;11.546;2023-04-29T02:35:44;95644.47;;;11.57;100.00
29239;BME280;16267;48.194;11.546;2023-04-29T02:38:10;95645.97;;;11.58;100.00
29239;BME280;16267;48.194;11.546;2023-04-29T02:40:43;95647.13;;;11.57;100.00
29239;BME280;16267;48.194;11.546;2023-04-29T02:43:10;95648.25;;;11.59;100.00
29239;BME280;16267;48.194;11.546;2023-04-29T02:45:37;95652.44;;;11.60;100.00
29239;BME280;16267;48.194;11.546;2023-04-29T02:48:04;95649.34;;;11.62;100.00
29239;BME280;16267;48.194;11.546;2023-04-29T02:50:30;95646.66;;;11.62;100.00
29239;BME280;16267;48.194;11.546;2023-04-29T02:52:56;95649.69;;;11.64;100.00
29239;BME280;16267;48.194;11.546;2023-04-29T02:55:22;95655.06;;;11.64;100.00
29239;BME280;16267;48.194;11.546;2023-04-29T02:57:48;95653.50;;;11.67;100.00
29239;BME280;16267;48.194;11.546;2023-04-29T03:00:14;95656.94;;;11.67;100.00
29239;BME280;16267;48.194;11.546;2023-04-29T03:02:39;95651.13;;;11.69;100.00
29239;BME280;16267;48.194;11.546;2023-04-29T03:05:05;95652.66;;;11.70;100.00
29239;BME280;16267;48.194;11.546;2023-04-29T03:07:31;95653.75;;;11.72;100.00
29239;BME280;16267;48.194;11.546;2023-04-29T03:09:57;95655.66;;;11.72;100.00
29239;BME280;16267;48.194;11.546;2023-04-29T03:12:23;95656.78;;;11.74;100.00
29239;BME280;16267;48.194;11.546;2023-04-29T03:14:49;95660.56;;;11.77;100.00
29239;BME280;16267;48.194;11.546;2023-04-29T03:17:16;95652.94;;;11.75;100.00
29239;BME280;16267;48.194;11.546;2023-04-29T03:19:42;95656.72;;;11.78;100.00
29239;BME280;16267;48.194;11.546;2023-04-29T03:22:08;95655.53;;;11.79;100.00
29239;BME280;16267;48.194;11.546;2023-04-29T03:24:38;95657.03;;;11.80;100.00
29239;BME280;16267;48.194;11.546;2023-04-29T03:27:04;95651.25;;;11.81;100.00
29239;BME280;16267;48.194;11.546;2023-04-29T03:29:31;95650.09;;;11.82;100.00
29239;BME280;16267;48.194;11.546;2023-04-29T03:31:57;95654.31;;;11.83;100.00
29239;BME280;16267;48.194;11.546;2023-04-29T03:34:23;95649.69;;;11.84;100.00
29239;BME280;16267;48.194;11.546;2023-04-29T03:36:49;95658.50;;;11.84;100.00
29239;BME280;16267;48.194;11.546;2023-04-29T03:39:16;95650.44;;;11.84;100.00
29239;BME280;16267;48.194;11.546;2023-04-29T03:41:42;95651.19;;;11.85;100.00
29239;BME280;16267;48.194;11.546;2023-04-29T03:44:08;95656.19;;;11.87;100.00
29239;BME280;16267;48.194;11.546;2023-04-29T03:46:34;95643.91;;;11.86;100.00
29239;BME280;16267;48.194;11.546;2023-04-29T03:49:00;95650.06;;;11.86;100.00
29239;BME280;16267;48.194;11.546;2023-04-29T03:51:26;95653.13;;;11.84;100.00
29239;BME280;16267;48.194;11.546;2023-04-29T03:53:53;95652.78;;;11.82;100.00
29239;BME280;16267;48.194;11.546;2023-04-29T03:56:21;95656.22;;;11.83;100.00
29239;BME280;16267;48.194;11.546;2023-04-29T03:58:47;95653.19;;;11.81;100.00
29239;BME280;16267;48.194;11.546;2023-04-29T04:01:13;95653.94;;;11.81;100.00
29239;BME280;16267;48.194;11.546;2023-04-29T04:03:39;95655.88;;;11.81;100.00
29239;BME280;16267;48.194;11.546;2023-04-29T04:06:07;95651.34;;;11.78;100.00
29239;BME280;16267;48.194;11.546;2023-04-29T04:08:33;95665.19;;;11.76;100.00
29239;BME280;16267;48.194;11.546;2023-04-29T04:10:59;95664.78;;;11.78;100.00
29239;BME280;16267;48.194;11.546;2023-04-29T04:13:30;95659.81;;;11.76;100.00
29239;BME280;16267;48.194;11.546;2023-04-29T04:15:56;95661.81;;;11.72;100.00
29239;BME280;16267;48.194;11.546;2023-04-29T04:18:22;95657.59;;;11.71;100.00
29239;BME280;16267;48.194;11.546;2023-04-29T04:20:48;95654.91;;;11.71;100.00
29239;BME280;16267;48.194;11.546;2023-04-29T04:23:14;95668.72;;;11.73;100.00
29239;BME280;16267;48.194;11.546;2023-04-29T04:25:47;95669.47;;;11.74;100.00
29239;BME280;16267;48.194;11.546;2023-04-29T04:28:13;95674.09;;;11.73;100.00
29239;BME280;16267;48.194;11.546;2023-04-29T04:30:40;95669.47;;;11.74;100.00
29239;BME280;16267;48.194;11.546;2023-04-29T04:33:07;95672.06;;;11.77;100.00
29239;BME280;16267;48.194;11.546;2023-04-29T04:35:33;95677.81;;;11.79;100.00
29239;BME280;16267;48.194;11.546;2023-04-29T04:37:59;95680.84;;;11.81;100.00
29239;BME280;16267;48.194;11.546;2023-04-29T04:40:24;95678.16;;;11.81;100.00
29239;BME280;16267;48.194;11.546;2023-04-29T04:42:50;95680.75;;;11.85;100.00
29239;BME280;16267;48.194;11.546;2023-04-29T04:45:16;95682.31;;;11.86;100.00
29239;BME280;16267;48.194;11.546;2023-04-29T04:47:42;95684.59;;;11.88;100.00
29239;BME280;16267;48.194;11.546;2023-04-29T04:50:08;95681.41;;;11.93;100.00
29239;BME280;16267;48.194;11.546;2023-04-29T04:52:34;95686.72;;;11.96;100.00
29239;BME280;16267;48.194;11.546;2023-04-29T04:55:00;95678.59;;;12.00;100.00
29239;BME280;16267;48.194;11.546;2023-04-29T04:57:26;95677.75;;;12.03;100.00
29239;BME280;16267;48.194;11.546;2023-04-29T04:59:51;95695.31;;;12.08;100.00
29239;BME280;16267;48.194;11.546;2023-04-29T05:02:17;95681.81;;;12.11;100.00
29239;BME280;16267;48.194;11.546;2023-04-29T05:04:43;95693.63;;;12.14;100.00
29239;BME280;16267;48.194;11.546;2023-04-29T05:07:09;95685.06;;;12.19;100.00
29239;BME280;16267;48.194;11.546;2023-04-29T05:09:35;95692.31;;;12.22;100.00
29239;BME280;16267;48.194;11.546;2023-04-29T05:12:02;95686.44;;;12.27;100.00
29239;BME280;16267;48.194;11.546;2023-04-29T05:14:28;95687.13;;;12.31;100.00
29239;BME280;16267;48.194;11.546;2023-04-29T05:17:00;95694.72;;;12.36;100.00
29239;BME280;16267;48.194;11.546;2023-04-29T05:19:26;95692.69;;;12.40;100.00
29239;BME280;16267;48.194;11.546;2023-04-29T05:21:52;95697.22;;;12.43;100.00
29239;BME280;16267;48.194;11.546;2023-04-29T05:24:18;95704.41;;;12.50;100.00
29239;BME280;16267;48.194;11.546;2023-04-29T05:26:44;95698.50;;;12.55;100.00
29239;BME280;16267;48.194;11.546;2023-04-29T05:29:10;95707.69;;;12.58;100.00
29239;BME280;16267;48.194;11.546;2023-04-29T05:31:36;95714.84;;;12.64;100.00
29239;BME280;16267;48.194;11.546;2023-04-29T05:34:04;95713.56;;;12.69;100.00
29239;BME280;16267;48.194;11.546;2023-04-29T05:36:30;95712.75;;;12.72;100.00
29239;BME280;16267;48.194;11.546;2023-04-29T05:38:56;95718.41;;;12.78;100.00
29239;BME280;16267;48.194;11.546;2023-04-29T05:41:22;95713.75;;;12.78;100.00
29239;BME280;16267;48.194;11.546;2023-04-29T05:43:50;95722.50;;;12.82;100.00
29239;BME280;16267;48.194;11.546;2023-04-29T05:46:16;95726.19;;;12.88;100.00
29239;BME280;16267;48.194;11.546;2023-04-29T05:48:42;95728.50;;;12.90;100.00
29239;BME280;16267;48.194;11.546;2023-04-29T05:51:08;95730.34;;;12.93;100.00
29239;BME280;16267;48.194;11.546;2023-04-29T05:53:33;95734.78;;;13.00;100.00
29239;BME280;16267;48.194;11.546;2023-04-29T05:56:00;95739.75;;;13.01;100.00
29239;BME280;16267;48.194;11.546;2023-04-29T05:58:30;95742.31;;;13.08;100.00
29239;BME280;16267;48.194;11.546;2023-04-29T06:00:56;95737.91;;;13.14;100.00
29239;BME280;16267;48.194;11.546;2023-04-29T06:03:22;95747.84;;;13.34;100.00
29239;BME280;16267;48.194;11.546;2023-04-29T06:05:48;95745.81;;;13.38;100.00
29239;BME280;16267;48.194;11.546;2023-04-29T06:08:14;95747.25;;;13.43;100.00
29239;BME280;16267;48.194;11.546;2023-04-29T06:10:40;95755.69;;;13.45;100.00
29239;BME280;16267;48.194;11.546;2023-04-29T06:13:05;95753.31;;;13.47;100.00
29239;BME280;16267;48.194;11.546;2023-04-29T06:15:31;95754.84;;;13.48;100.00
29239;BME280;16267;48.194;11.546;2023-04-29T06:17:57;95759.47;;;13.47;100.00
29239;BME280;16267;48.194;11.546;2023-04-29T06:20:23;95757.88;;;13.50;100.00
29239;BME280;16267;48.194;11.546;2023-04-29T06:22:49;95758.75;;;13.59;100.00
29239;BME280;16267;48.194;11.546;2023-04-29T06:25:15;95764.84;;;13.64;100.00
29239;BME280;16267;48.194;11.546;2023-04-29T06:27:41;95771.97;;;13.70;100.00
29239;BME280;16267;48.194;11.546;2023-04-29T06:30:07;95769.63;;;13.72;100.00
29239;BME280;16267;48.194;11.546;2023-04-29T06:32:33;95769.50;;;13.76;100.00
29239;BME280;16267;48.194;11.546;2023-04-29T06:34:59;95769.75;;;13.81;100.00
29239;BME280;16267;48.194;11.546;2023-04-29T06:37:26;95778.06;;;13.87;100.00
29239;BME280;16267;48.194;11.546;2023-04-29T06:39:53;95780.34;;;13.89;100.00
29239;BME280;16267;48.194;11.546;2023-04-29T06:42:18;95777.75;;;13.85;100.00
29239;BME280;16267;48.194;11.546;2023-04-29T06:44:44;95773.66;;;13.93;100.00
29239;BME280;16267;48.194;11.546;2023-04-29T06:47:10;95769.25;;;13.99;100.00
29239;BME280;16267;48.194;11.546;2023-04-29T06:49:36;95777.03;;;13.97;100.00
29239;BME280;16267;48.194;11.546;2023-04-29T06:52:01;95777.16;;;14.06;100.00
29239;BME280;16267;48.194;11.546;2023-04-29T06:54:27;95782.41;;;14.26;100.00
29239;BME280;16267;48.194;11.546;2023-04-29T06:56:53;95780.69;;;14.33;100.00
29239;BME280;16267;48.194;11.546;2023-04-29T06:59:19;95774.03;;;14.50;100.00
29239;BME280;16267;48.194;11.546;2023-04-29T07:01:45;95772.75;;;14.55;100.00
29239;BME280;16267;48.194;11.546;2023-04-29T07:04:12;95767.78;;;14.66;100.00
29239;BME280;16267;48.194;11.546;2023-04-29T07:06:37;95774.19;;;14.72;100.00
29239;BME280;16267;48.194;11.546;2023-04-29T07:09:03;95769.88;;;14.75;100.00
29239;BME280;16267;48.194;11.546;2023-04-29T07:11:29;95770.94;;;14.90;100.00
29239;BME280;16267;48.194;11.546;2023-04-29T07:13:55;95774.72;;;14.92;100.00
29239;BME280;16267;48.194;11.546;2023-04-29T07:16:20;95775.78;;;15.08;100.00
29239;BME280;16267;48.194;11.546;2023-04-29T07:18:49;95772.44;;;15.16;100.00
29239;BME280;16267;48.194;11.546;2023-04-29T07:21:15;95772.31;;;15.20;100.00
29239;BME280;16267;48.194;11.546;2023-04-29T07:23:41;95774.47;;;15.25;100.00
29239;BME280;16267;48.194;11.546;2023-04-29T07:26:11;95776.72;;;15.27;100.00
29239;BME280;16267;48.194;11.546;2023-04-29T07:28:38;95770.03;;;15.18;100.00
29239;BME280;16267;48.194;11.546;2023-04-29T07:31:05;95782.03;;;15.17;100.00
29239;BME280;16267;48.194;11.546;2023-04-29T07:33:32;95772.09;;;15.27;100.00
29239;BME280;16267;48.194;11.546;2023-04-29T07:35:58;95781.16;;;15.33;100.00
29239;BME280;16267;48.194;11.546;2023-04-29T07:38:24;95780.91;;;15.40;100.00
29239;BME280;16267;48.194;11.546;2023-04-29T07:40:50;95785.88;;;15.55;100.00
29239;BME280;16267;48.194;11.546;2023-04-29T07:43:16;95781.59;;;15.67;100.00
29239;BME280;16267;48.194;11.546;2023-04-29T07:45:42;95785.00;;;15.58;97.29
29239;BME280;16267;48.194;11.546;2023-04-29T07:48:08;95782.47;;;15.64;97.15
29239;BME280;16267;48.194;11.546;2023-04-29T07:50:35;95782.25;;;15.71;97.00
29239;BME280;16267;48.194;11.546;2023-04-29T07:53:02;95771.28;;;15.87;96.47
29239;BME280;16267;48.194;11.546;2023-04-29T07:55:28;95787.13;;;15.98;97.24
29239;BME280;16267;48.194;11.546;2023-04-29T07:57:57;95776.06;;;16.05;93.78
29239;BME280;16267;48.194;11.546;2023-04-29T08:00:24;95780.72;;;16.26;96.94
29239;BME280;16267;48.194;11.546;2023-04-29T08:02:54;95782.16;;;16.18;94.22
29239;BME280;16267;48.194;11.546;2023-04-29T08:05:21;95791.16;;;16.15;91.08
29239;BME280;16267;48.194;11.546;2023-04-29T08:07:48;95784.94;;;16.27;94.20
29239;BME280;16267;48.194;11.546;2023-04-29T08:10:15;95789.09;;;16.41;90.82
29239;BME280;16267;48.194;11.546;2023-04-29T08:12:41;95790.56;;;16.64;92.26
29239;BME280;16267;48.194;11.546;2023-04-29T08:15:10;95779.22;;;16.57;87.69
29239;BME280;16267;48.194;11.546;2023-04-29T08:17:35;95784.06;;;16.62;86.69
29239;BME280;16267;48.194;11.546;2023-04-29T08:20:01;95776.50;;;16.79;89.52
29239;BME280;16267;48.194;11.546;2023-04-29T08:22:27;95777.00;;;16.95;90.24
29239;BME280;16267;48.194;11.546;2023-04-29T08:24:53;95780.59;;;16.92;87.98
29239;BME280;16267;48.194;11.546;2023-04-29T08:27:19;95777.81;;;17.05;87.09
29239;BME280;16267;48.194;11.546;2023-04-29T08:29:46;95777.34;;;17.07;84.34
29239;BME280;16267;48.194;11.546;2023-04-29T08:32:12;95775.59;;;17.22;83.70
29239;BME280;16267;48.194;11.546;2023-04-29T08:34:38;95773.78;;;17.19;85.10
29239;BME280;16267;48.194;11.546;2023-04-29T08:37:06;95777.06;;;17.14;84.56
29239;BME280;16267;48.194;11.546;2023-04-29T08:39:32;95778.28;;;17.13;83.03
29239;BME280;16267;48.194;11.546;2023-04-29T08:41:57;95779.78;;;17.14;81.81
29239;BME280;16267;48.194;11.546;2023-04-29T08:44:27;95778.03;;;17.29;83.24
29239;BME280;16267;48.194;11.546;2023-04-29T08:46:54;95761.91;;;17.53;85.48
29239;BME280;16267;48.194;11.546;2023-04-29T08:49:21;95773.81;;;17.56;83.11
29239;BME280;16267;48.194;11.546;2023-04-29T08:51:50;95777.88;;;17.51;80.71
29239;BME280;16267;48.194;11.546;2023-04-29T08:54:16;95777.72;;;17.46;80.89
29239;BME280;16267;48.194;11.546;2023-04-29T08:56:45;95784.38;;;17.45;80.99
29239;BME280;16267;48.194;11.546;2023-04-29T08:59:14;95786.03;;;17.42;79.63
29239;BME280;16267;48.194;11.546;2023-04-29T09:01:42;95784.66;;;17.37;80.82
29239;BME280;16267;48.194;11.546;2023-04-29T09:04:21;95780.59;;;17.33;80.42
29239;BME280;16267;48.194;11.546;2023-04-29T09:06:48;95781.78;;;17.32;79.79
29239;BME280;16267;48.194;11.546;2023-04-29T09:09:14;95775.91;;;17.33;79.74
29239;BME280;16267;48.194;11.546;2023-04-29T09:11:43;95775.00;;;17.27;77.61
29239;BME280;16267;48.194;11.546;2023-04-29T09:14:09;95777.88;;;17.24;76.56
29239;BME280;16267;48.194;11.546;2023-04-29T09:16:36;95784.06;;;17.43;77.71
29239;BME280;16267;48.194;11.546;2023-04-29T09:19:03;95779.06;;;17.32;73.00
29239;BME280;16267;48.194;11.546;2023-04-29T09:21:29;95776.53;;;17.56;76.11
29239;BME280;16267;48.194;11.546;2023-04-29T09:24:00;95766.75;;;17.58;76.36
29239;BME280;16267;48.194;11.546;2023-04-29T09:26:42;95765.09;;;17.70;75.93
29239;BME280;16267;48.194;11.546;2023-04-29T09:29:12;95764.66;;;17.81;77.87
29239;BME280;16267;48.194;11.546;2023-04-29T09:31:41;95768.28;;;17.96;75.19
29239;BME280;16267;48.194;11.546;2023-04-29T09:34:07;95768.59;;;18.08;75.67
29239;BME280;16267;48.194;11.546;2023-04-29T09:36:45;95770.25;;;17.96;72.40
29239;BME280;16267;48.194;11.546;2023-04-29T09:39:21;95768.59;;;18.08;71.86
29239;BME280;16267;48.194;11.546;2023-04-29T09:41:58;95767.81;;;18.16;68.47
29239;BME280;16267;48.194;11.546;2023-04-29T09:44:54;95760.41;;;18.35;69.79
29239;BME280;16267;48.194;11.546;2023-04-29T09:47:33;95754.75;;;18.48;68.98
29239;BME280;16267;48.194;11.546;2023-04-29T09:50:10;95755.00;;;18.68;70.32
29239;BME280;16267;48.194;11.546;2023-04-29T09:52:51;95759.19;;;18.88;69.33
29239;BME280;16267;48.194;11.546;2023-04-29T09:55:17;95769.44;;;18.93;67.16
29239;BME280;16267;48.194;11.546;2023-04-29T09:57:42;95767.47;;;18.93;68.77
29239;BME280;16267;48.194;11.546;2023-04-29T10:00:14;95777.47;;;18.87;69.85
29239;BME280;16267;48.194;11.546;2023-04-29T10:02:46;95776.56;;;18.90;69.61
29239;BME280;16267;48.194;11.546;2023-04-29T10:05:14;95786.66;;;18.90;70.45
29239;BME280;16267;48.194;11.546;2023-04-29T10:07:41;95775.94;;;18.86;70.28
29239;BME280;16267;48.194;11.546;2023-04-29T10:10:08;95780.22;;;18.78;70.12
29239;BME280;16267;48.194;11.546;2023-04-29T10:12:36;95777.97;;;18.77;69.25
29239;BME280;16267;48.194;11.546;2023-04-29T10:18:10;95780.19;;;18.87;70.65
29239;BME280;16267;48.194;11.546;2023-04-29T10:20:40;95768.41;;;18.90;69.38
29239;BME280;16267;48.194;11.546;2023-04-29T10:23:10;95772.00;;;18.97;71.59
29239;BME280;16267;48.194;11.546;2023-04-29T10:25:39;95775.41;;;19.06;71.71
29239;BME280;16267;48.194;11.546;2023-04-29T10:28:11;95771.94;;;19.06;70.18
29239;BME280;16267;48.194;11.546;2023-04-29T10:30:42;95772.06;;;19.11;69.01
29239;BME280;16267;48.194;11.546;2023-04-29T10:33:10;95765.00;;;19.05;65.62
29239;BME280;16267;48.194;11.546;2023-04-29T10:35:37;95773.16;;;19.05;65.59
29239;BME280;16267;48.194;11.546;2023-04-29T10:38:14;95781.44;;;19.10;67.03
29239;BME280;16267;48.194;11.546;2023-04-29T10:40:44;95765.53;;;19.18;66.30
29239;BME280;16267;48.194;11.546;2023-04-29T10:43:25;95769.75;;;19.19;67.58
29239;BME280;16267;48.194;11.546;2023-04-29T10:46:18;95779.66;;;19.07;64.36
29239;BME280;16267;48.194;11.546;2023-04-29T10:48:46;95770.75;;;19.07;65.62
29239;BME280;16267;48.194;11.546;2023-04-29T10:51:12;95772.16;;;18.93;62.84
29239;BME280;16267;48.194;11.546;2023-04-29T10:54:02;95778.09;;;18.73;61.26
29239;BME280;16267;48.194;11.546;2023-04-29T10:56:52;95773.97;;;18.96;65.94
29239;BME280;16267;48.194;11.546;2023-04-29T11:01:53;95780.94;;;18.88;62.15
29239;BME280;16267;48.194;11.546;2023-04-29T11:04:21;95766.31;;;18.85;63.08
29239;BME280;16267;48.194;11.546;2023-04-29T11:06:52;95763.97;;;19.02;63.79
29239;BME280;16267;48.194;11.546;2023-04-29T11:09:26;95752.31;;;19.26;63.32
29239;BME280;16267;48.194;11.546;2023-04-29T11:15:10;95760.47;;;19.35;62.12
29239;BME280;16267;48.194;11.546;2023-04-29T11:17:18;95763.88;;;19.21;58.81
29239;BME280;16267;48.194;11.546;2023-04-29T11:19:48;95763.38;;;19.22;58.90
29239;BME280;16267;48.194;11.546;2023-04-29T11:25:00;95764.03;;;19.17;57.13
29239;BME280;16267;48.194;11.546;2023-04-29T11:27:31;95769.94;;;19.15;57.10
29239;BME280;16267;48.194;11.546;2023-04-29T11:29:59;95775.03;;;19.23;58.25
29239;BME280;16267;48.194;11.546;2023-04-29T11:32:34;95771.44;;;19.16;56.76
29239;BME280;16267;48.194;11.546;2023-04-29T11:35:26;95759.03;;;19.39;59.99
29239;BME280;16267;48.194;11.546;2023-04-29T11:37:52;95774.09;;;19.50;57.76
29239;BME280;16267;48.194;11.546;2023-04-29T11:40:18;95772.13;;;19.50;57.77
29239;BME280;16267;48.194;11.546;2023-04-29T11:42:46;95765.31;;;19.55;57.41
29239;BME280;16267;48.194;11.546;2023-04-29T11:45:13;95761.44;;;19.47;54.56
29239;BME280;16267;48.194;11.546;2023-04-29T11:47:48;95774.19;;;19.41;54.17
29239;BME280;16267;48.194;11.546;2023-04-29T11:50:16;95771.44;;;19.41;55.45
29239;BME280;16267;48.194;11.546;2023-04-29T11:52:46;95774.84;;;19.50;54.71
29239;BME280;16267;48.194;11.546;2023-04-29T11:55:12;95773.19;;;19.53;54.78
29239;BME280;16267;48.194;11.546;2023-04-29T11:57:39;95771.31;;;19.59;53.94
29239;BME280;16267;48.194;11.546;2023-04-29T12:00:11;95781.31;;;19.62;53.83
29239;BME280;16267;48.194;11.546;2023-04-29T12:02:37;95777.25;;;19.57;52.86
29239;BME280;16267;48.194;11.546;2023-04-29T12:05:07;95775.66;;;19.42;51.96
29239;BME280;16267;48.194;11.546;2023-04-29T12:07:34;95782.28;;;19.50;52.60
29239;BME280;16267;48.194;11.546;2023-04-29T12:10:00;95778.69;;;19.44;50.57
29239;BME280;16267;48.194;11.546;2023-04-29T12:12:26;95785.84;;;19.56;52.54
29239;BME280;16267;48.194;11.546;2023-04-29T12:14:53;95772.63;;;19.49;51.34
29239;BME280;16267;48.194;11.546;2023-04-29T12:17:19;95775.59;;;19.51;52.72
29239;BME280;16267;48.194;11.546;2023-04-29T12:19:45;95774.59;;;19.48;52.65
29239;BME280;16267;48.194;11.546;2023-04-29T12:22:12;95771.69;;;19.52;53.78
29239;BME280;16267;48.194;11.546;2023-04-29T12:24:39;95763.97;;;19.50;54.09
29239;BME280;16267;48.194;11.546;2023-04-29T12:27:08;95778.41;;;19.42;52.44
29239;BME280;16267;48.194;11.546;2023-04-29T12:29:36;95777.56;;;19.50;53.70
29239;BME280;16267;48.194;11.546;2023-04-29T12:32:02;95774.84;;;19.50;52.93
29239;BME280;16267;48.194;11.546;2023-04-29T12:34:29;95781.63;;;19.55;53.86
29239;BME280;16267;48.194;11.546;2023-04-29T12:36:58;95787.72;;;19.50;53.58
29239;BME280;16267;48.194;11.546;2023-04-29T12:39:25;95777.88;;;19.52;52.63
29239;BME280;16267;48.194;11.546;2023-04-29T12:41:56;95787.38;;;19.57;52.29
29239;BME280;16267;48.194;11.546;2023-04-29T12:44:23;95777.31;;;19.48;51.90
29239;BME280;16267;48.194;11.546;2023-04-29T12:46:49;95790.63;;;19.46;53.17
29239;BME280;16267;48.194;11.546;2023-04-29T12:49:16;95777.31;;;19.48;52.87
29239;BME280;16267;48.194;11.546;2023-04-29T12:51:43;95785.63;;;19.45;51.45
29239;BME280;16267;48.194;11.546;2023-04-29T12:54:09;95774.75;;;19.45;52.30
29239;BME280;16267;48.194;11.546;2023-04-29T12:56:37;95789.09;;;19.45;52.57
29239;BME280;16267;48.194;11.546;2023-04-29T12:59:08;95780.94;;;19.45;52.00
29239;BME280;16267;48.194;11.546;2023-04-29T13:01:35;95790.91;;;19.48;52.52
29239;BME280;16267;48.194;11.546;2023-04-29T13:04:01;95785.59;;;19.54;52.78
29239;BME280;16267;48.194;11.546;2023-04-29T13:06:29;95789.06;;;19.54;52.13
29239;BME280;16267;48.194;11.546;2023-04-29T13:08:55;95786.34;;;19.54;51.37
29239;BME280;16267;48.194;11.546;2023-04-29T13:11:21;95787.66;;;19.59;50.62
29239;BME280;16267;48.194;11.546;2023-04-29T13:13:47;95788.75;;;19.52;49.33
29239;BME280;16267;48.194;11.546;2023-04-29T13:16:12;95785.28;;;19.52;50.47
29239;BME280;16267;48.194;11.546;2023-04-29T13:18:38;95777.13;;;19.52;50.01